Time;durP1;ratioP1;P1;durP2;ratioP2;P2;SDS_P1;SDS_P2;PMS_P1;PMS_P2;Temp;Humidity;BMP_temperature;BMP_pressure;BME280_temperature;BME280_humidity;BME280_pressure;Samples;Min_cycle;Max_cycle;Signal;HPM_P1;HPM_P2
2021/01/09 00:00:10;;;;;;;1050.53;131.73;;;;;;;;;;3246121;44;20094;-69
2021/01/09 00:02:35;;;;;;;1053.22;130.90;;;;;;;;;;3246147;44;20546;-69
2021/01/09 00:05:01;;;;;;;1051.03;131.23;;;;;;;;;;3246076;44;20091;-69
2021/01/09 00:07:29;;;;;;;1049.53;131.32;;;;;;;;;;3246316;44;20121;-69
2021/01/09 00:09:56;;;;;;;1048.22;131.18;;;;;;;;;;3246050;44;20503;-70
2021/01/09 00:12:22;;;;;;;1054.55;131.73;;;;;;;;;;3246561;44;20472;-70
2021/01/09 00:14:48;;;;;;;1055.72;131.00;;;;;;;;;;3246272;44;20103;-71
2021/01/09 00:17:14;;;;;;;1052.97;131.07;;;;;;;;;;3246591;44;20110;-70
2021/01/09 00:19:39;;;;;;;1049.40;131.05;;;;;;;;;;3246413;44;20099;-71
2021/01/09 00:22:07;;;;;;;1050.18;131.20;;;;;;;;;;3246647;44;20090;-69
2021/01/09 00:24:32;;;;;;;1053.00;130.60;;;;;;;;;;3246359;44;20138;-69
2021/01/09 00:26:58;;;;;;;1052.05;130.93;;;;;;;;;;3245935;44;20430;-69
2021/01/09 00:29:24;;;;;;;1041.65;131.25;;;;;;;;;;3246393;44;20109;-69
2021/01/09 00:31:49;;;;;;;1045.07;130.77;;;;;;;;;;3238383;44;20090;-70
2021/01/09 00:34:15;;;;;;;1045.57;129.98;;;;;;;;;;3246397;44;20118;-70
2021/01/09 00:36:50;;;;;;;1045.30;130.95;;;;;;;;;;3246750;44;20099;-70
2021/01/09 00:39:16;;;;;;;1037.25;130.30;;;;;;;;;;3247270;44;20095;-70
2021/01/09 00:41:42;;;;;;;1043.00;130.60;;;;;;;;;;3221040;44;20114;-68
2021/01/09 00:44:08;;;;;;;1043.80;130.50;;;;;;;;;;3220970;44;20100;-71
2021/01/09 00:46:35;;;;;;;1057.10;130.68;;;;;;;;;;3241624;44;20441;-70
2021/01/09 00:49:02;;;;;;;1057.70;130.45;;;;;;;;;;3246852;44;20106;-69
2021/01/09 00:51:27;;;;;;;1060.80;130.85;;;;;;;;;;3247341;44;20106;-70
2021/01/09 00:53:53;;;;;;;1057.13;130.55;;;;;;;;;;3247251;44;20121;-69
2021/01/09 00:56:19;;;;;;;1070.05;130.87;;;;;;;;;;3239131;44;20540;-69
2021/01/09 00:58:44;;;;;;;1063.00;130.80;;;;;;;;;;3247392;44;20091;-71
2021/01/09 01:01:10;;;;;;;1065.85;130.87;;;;;;;;;;3247065;44;20099;-69
2021/01/09 01:03:42;;;;;;;1063.20;130.57;;;;;;;;;;3239002;44;20122;-69
2021/01/09 01:06:08;;;;;;;1060.45;130.70;;;;;;;;;;3246864;44;20110;-69
2021/01/09 01:08:35;;;;;;;1068.03;131.02;;;;;;;;;;3246732;44;20562;-69
2021/01/09 01:11:02;;;;;;;1067.85;130.85;;;;;;;;;;3247374;44;20099;-70
2021/01/09 01:13:28;;;;;;;1051.28;130.45;;;;;;;;;;3247527;44;20106;-69
2021/01/09 01:15:54;;;;;;;1050.20;130.63;;;;;;;;;;3247815;44;20091;-69
2021/01/09 01:18:20;;;;;;;1062.15;130.55;;;;;;;;;;3247837;44;20111;-71
2021/01/09 01:20:47;;;;;;;1057.90;130.60;;;;;;;;;;3247680;44;20099;-70
2021/01/09 01:23:12;;;;;;;1052.97;130.60;;;;;;;;;;3247229;44;20186;-69
2021/01/09 01:25:38;;;;;;;1064.72;130.87;;;;;;;;;;3247353;44;20091;-69
2021/01/09 01:28:04;;;;;;;1058.47;130.70;;;;;;;;;;3247459;44;20181;-69
2021/01/09 01:30:29;;;;;;;1057.95;130.27;;;;;;;;;;3247597;44;20179;-69
2021/01/09 01:32:56;;;;;;;1053.25;130.45;;;;;;;;;;3239377;44;20465;-69
2021/01/09 01:35:22;;;;;;;1058.07;130.52;;;;;;;;;;3247711;44;20098;-70
2021/01/09 01:37:48;;;;;;;1061.32;130.32;;;;;;;;;;3247359;44;20153;-69
2021/01/09 01:40:14;;;;;;;1072.78;130.50;;;;;;;;;;3239177;44;20099;-69
2021/01/09 01:42:40;;;;;;;1080.90;131.10;;;;;;;;;;3246286;44;20414;-70
2021/01/09 01:45:07;;;;;;;1085.72;131.25;;;;;;;;;;3245891;44;20118;-69
2021/01/09 01:47:33;;;;;;;1093.55;131.27;;;;;;;;;;3245769;44;20477;-69
2021/01/09 01:50:00;;;;;;;1102.47;131.75;;;;;;;;;;3246033;44;20111;-69
2021/01/09 01:52:26;;;;;;;1099.15;131.82;;;;;;;;;;3246072;44;20095;-70
2021/01/09 01:54:51;;;;;;;1100.93;131.68;;;;;;;;;;3245853;44;20165;-69
2021/01/09 01:57:17;;;;;;;1097.63;131.75;;;;;;;;;;3246424;44;20099;-69
2021/01/09 01:59:43;;;;;;;1107.35;131.45;;;;;;;;;;3246347;44;20125;-69
2021/01/09 02:02:09;;;;;;;1104.90;131.37;;;;;;;;;;3246351;44;20095;-70
2021/01/09 02:04:35;;;;;;;1105.63;131.57;;;;;;;;;;3246221;44;20534;-69
2021/01/09 02:07:05;;;;;;;1104.53;131.77;;;;;;;;;;3246581;44;20095;-69
2021/01/09 02:09:33;;;;;;;1105.80;131.55;;;;;;;;;;3246572;44;20102;-68
2021/01/09 02:11:58;;;;;;;1098.07;131.43;;;;;;;;;;3246292;44;20474;-69
2021/01/09 02:14:31;;;;;;;1096.93;131.35;;;;;;;;;;3246963;44;20115;-69
2021/01/09 02:16:57;;;;;;;1100.50;131.52;;;;;;;;;;3247007;44;20098;-70
2021/01/09 02:19:24;;;;;;;1100.28;131.63;;;;;;;;;;3247419;44;20464;-69
2021/01/09 02:21:51;;;;;;;1108.45;131.65;;;;;;;;;;3247369;44;20528;-69
2021/01/09 02:24:17;;;;;;;1119.05;131.77;;;;;;;;;;3247452;44;20134;-70
2021/01/09 02:26:44;;;;;;;1123.68;131.87;;;;;;;;;;3247622;44;20110;-69
2021/01/09 02:29:12;;;;;;;1116.45;131.45;;;;;;;;;;3247343;44;20547;-68
2021/01/09 02:31:48;;;;;;;1126.68;131.68;;;;;;;;;;3246431;44;20336;-67
2021/01/09 02:34:14;;;;;;;1118.00;131.80;;;;;;;;;;3246528;44;20137;-69
2021/01/09 02:36:40;;;;;;;1118.43;131.60;;;;;;;;;;3246179;44;20095;-69
2021/01/09 02:39:07;;;;;;;1113.63;131.30;;;;;;;;;;3246490;44;20555;-69
2021/01/09 02:41:34;;;;;;;1118.25;131.60;;;;;;;;;;3245535;44;20162;-70
2021/01/09 02:44:26;;;;;;;1126.28;131.50;;;;;;;;;;3245478;44;20719;-70
2021/01/09 02:46:51;;;;;;;1133.47;132.05;;;;;;;;;;3243144;44;20154;-69
2021/01/09 02:49:17;;;;;;;1134.05;132.12;;;;;;;;;;3245837;44;20110;-69
2021/01/09 02:51:43;;;;;;;1140.97;132.15;;;;;;;;;;3246257;44;20138;-67
2021/01/09 02:54:08;;;;;;;1136.00;131.73;;;;;;;;;;3246946;44;20560;-67
2021/01/09 02:56:34;;;;;;;1146.53;131.52;;;;;;;;;;3246569;44;20123;-67
2021/01/09 02:59:00;;;;;;;1142.72;131.10;;;;;;;;;;3246482;44;20579;-68
2021/01/09 03:01:29;;;;;;;1135.60;131.43;;;;;;;;;;3246353;44;20103;-67
2021/01/09 03:03:55;;;;;;;1136.22;131.23;;;;;;;;;;3246268;44;20180;-69
2021/01/09 03:06:21;;;;;;;1133.40;131.12;;;;;;;;;;3246655;44;20580;-73
2021/01/09 03:08:46;;;;;;;1130.25;131.87;;;;;;;;;;3246678;44;20106;-70
2021/01/09 03:11:12;;;;;;;1120.82;133.80;;;;;;;;;;3245597;44;20107;-69
2021/01/09 03:13:38;;;;;;;1113.95;132.18;;;;;;;;;;3245112;44;20090;-69
2021/01/09 03:16:04;;;;;;;1111.78;131.55;;;;;;;;;;3245708;44;20576;-71
2021/01/09 03:18:29;;;;;;;1112.82;131.20;;;;;;;;;;3244407;44;20118;-69
2021/01/09 03:20:55;;;;;;;1110.78;131.23;;;;;;;;;;3244797;44;20105;-70
2021/01/09 03:23:20;;;;;;;1107.72;131.12;;;;;;;;;;3244416;44;20110;-69
2021/01/09 03:25:46;;;;;;;1106.07;131.40;;;;;;;;;;3243689;44;20139;-69
2021/01/09 03:28:12;;;;;;;1107.28;131.12;;;;;;;;;;3245384;44;20115;-69
2021/01/09 03:30:37;;;;;;;1112.55;131.70;;;;;;;;;;3245279;44;20465;-69
2021/01/09 03:33:03;;;;;;;1132.53;131.27;;;;;;;;;;3245271;44;20118;-69
2021/01/09 03:35:29;;;;;;;1129.28;131.05;;;;;;;;;;3245103;44;20529;-69
2021/01/09 03:37:55;;;;;;;1137.60;131.18;;;;;;;;;;3244843;44;20095;-68
2021/01/09 03:40:20;;;;;;;1136.45;131.35;;;;;;;;;;3245346;44;20114;-69
2021/01/09 03:42:46;;;;;;;1129.05;130.98;;;;;;;;;;3245069;44;20118;-68
2021/01/09 03:45:12;;;;;;;1124.47;131.98;;;;;;;;;;3244985;44;20168;-68
2021/01/09 03:47:37;;;;;;;1123.18;131.87;;;;;;;;;;3245264;44;20431;-69
2021/01/09 03:50:04;;;;;;;1125.32;131.73;;;;;;;;;;3244653;44;20133;-68
2021/01/09 03:52:29;;;;;;;1128.30;131.23;;;;;;;;;;3245033;44;20099;-69
2021/01/09 03:54:55;;;;;;;1126.88;131.40;;;;;;;;;;3245307;44;20472;-69
2021/01/09 03:57:22;;;;;;;1131.82;131.45;;;;;;;;;;3244875;44;20111;-68
2021/01/09 03:59:48;;;;;;;1126.45;131.35;;;;;;;;;;3245283;44;20094;-68
2021/01/09 04:02:13;;;;;;;1134.95;131.15;;;;;;;;;;3244827;44;20141;-69
2021/01/09 04:04:39;;;;;;;1134.90;131.18;;;;;;;;;;3245431;44;20114;-69
2021/01/09 04:07:04;;;;;;;1135.03;130.85;;;;;;;;;;3245165;44;20430;-69
2021/01/09 04:09:30;;;;;;;1125.43;130.90;;;;;;;;;;3245087;44;20122;-69
2021/01/09 04:11:56;;;;;;;1123.53;131.12;;;;;;;;;;3237345;44;20114;-70
2021/01/09 04:14:21;;;;;;;1116.53;131.27;;;;;;;;;;3244772;44;20099;-70
2021/01/09 04:16:48;;;;;;;1112.43;131.15;;;;;;;;;;3236984;44;20147;-68
2021/01/09 04:19:13;;;;;;;1116.07;131.35;;;;;;;;;;3245233;44;20130;-69
2021/01/09 04:21:43;;;;;;;1113.75;131.10;;;;;;;;;;3244564;44;20129;-69
2021/01/09 04:24:09;;;;;;;1115.43;131.07;;;;;;;;;;3244286;44;20139;-69
2021/01/09 04:26:34;;;;;;;1108.38;131.10;;;;;;;;;;3243689;44;20193;-69
2021/01/09 04:29:00;;;;;;;1109.82;131.23;;;;;;;;;;3244908;44;20122;-69
2021/01/09 04:31:27;;;;;;;1106.38;130.80;;;;;;;;;;3245509;44;20117;-70
2021/01/09 04:33:52;;;;;;;1114.30;130.70;;;;;;;;;;3246396;44;20119;-69
2021/01/09 04:36:18;;;;;;;1110.50;130.68;;;;;;;;;;3246106;44;20123;-68
2021/01/09 04:38:43;;;;;;;1117.28;130.68;;;;;;;;;;3243253;44;20130;-70
2021/01/09 04:41:09;;;;;;;1115.90;130.90;;;;;;;;;;3245099;44;20149;-70
2021/01/09 04:43:35;;;;;;;1111.88;130.95;;;;;;;;;;3246800;44;20099;-71
2021/01/09 04:46:01;;;;;;;1115.97;130.95;;;;;;;;;;3014225;44;9999770;-69
2021/01/09 04:48:26;;;;;;;1112.60;131.73;;;;;;;;;;3235710;44;20189;-71
2021/01/09 04:50:52;;;;;;;1109.18;131.50;;;;;;;;;;3236399;44;20142;-68
2021/01/09 04:53:21;;;;;;;1106.28;131.43;;;;;;;;;;3238774;44;20263;-74
2021/01/09 04:55:47;;;;;;;1102.93;131.50;;;;;;;;;;3234869;44;20169;-70
2021/01/09 04:58:13;;;;;;;1104.88;131.18;;;;;;;;;;3246565;44;20158;-68
2021/01/09 05:00:39;;;;;;;1106.65;130.95;;;;;;;;;;3235673;44;20118;-67
2021/01/09 05:03:04;;;;;;;1108.88;131.05;;;;;;;;;;3242596;44;20141;-70
2021/01/09 05:05:32;;;;;;;1107.05;131.75;;;;;;;;;;3243776;44;20119;-68
2021/01/09 05:07:59;;;;;;;1105.95;132.07;;;;;;;;;;3235982;44;20115;-70
2021/01/09 05:10:25;;;;;;;1109.32;131.80;;;;;;;;;;3245400;44;20097;-70
2021/01/09 05:12:51;;;;;;;1107.30;131.40;;;;;;;;;;3247002;44;20166;-69
2021/01/09 05:15:16;;;;;;;1102.85;131.23;;;;;;;;;;3246713;44;20142;-70
2021/01/09 05:17:42;;;;;;;1110.80;131.48;;;;;;;;;;3245516;44;20109;-70
2021/01/09 05:20:08;;;;;;;1109.80;131.77;;;;;;;;;;3245353;44;20157;-70
2021/01/09 05:22:37;;;;;;;1109.80;131.75;;;;;;;;;;3245508;44;20595;-69
2021/01/09 05:25:03;;;;;;;1112.45;131.00;;;;;;;;;;3245735;44;20158;-69
2021/01/09 05:27:29;;;;;;;1115.80;130.87;;;;;;;;;;3245218;44;20263;-70
2021/01/09 05:29:55;;;;;;;1120.70;130.80;;;;;;;;;;3245943;44;20087;-71
2021/01/09 05:32:21;;;;;;;1124.18;130.87;;;;;;;;;;3246114;44;20107;-68
2021/01/09 05:34:48;;;;;;;1123.10;131.32;;;;;;;;;;3246159;44;20098;-70
2021/01/09 05:37:17;;;;;;;1120.18;131.35;;;;;;;;;;3246211;44;20113;-69
2021/01/09 05:39:54;;;;;;;1117.20;130.95;;;;;;;;;;3246124;44;20136;-69
2021/01/09 05:42:21;;;;;;;1116.00;130.40;;;;;;;;;;3246448;44;20513;-68
2021/01/09 05:44:49;;;;;;;1120.88;130.87;;;;;;;;;;3246587;44;20528;-69
2021/01/09 05:47:15;;;;;;;1120.15;131.05;;;;;;;;;;3238163;44;20099;-69
2021/01/09 05:49:42;;;;;;;1114.22;131.02;;;;;;;;;;3246761;44;20110;-71
2021/01/09 05:52:08;;;;;;;1115.60;131.02;;;;;;;;;;3246374;44;20585;-69
2021/01/09 05:54:35;;;;;;;1118.05;131.52;;;;;;;;;;3246471;44;20118;-69
2021/01/09 05:57:02;;;;;;;1121.68;131.02;;;;;;;;;;3246524;44;20415;-69
2021/01/09 05:59:30;;;;;;;1115.88;131.40;;;;;;;;;;3247332;44;20099;-70
2021/01/09 06:01:57;;;;;;;1109.28;131.30;;;;;;;;;;3247108;44;20126;-70
2021/01/09 06:04:26;;;;;;;1103.93;130.52;;;;;;;;;;3248181;44;20146;-70
2021/01/09 06:07:10;;;;;;;1101.93;130.68;;;;;;;;;;3246108;44;20114;-69
2021/01/09 06:09:43;;;;;;;1099.90;131.07;;;;;;;;;;3246196;44;20138;-69
2021/01/09 06:12:12;;;;;;;1099.32;132.18;;;;;;;;;;3246339;44;20221;-69
2021/01/09 06:14:41;;;;;;;1098.20;133.68;;;;;;;;;;3239233;44;20435;-70
2021/01/09 06:17:06;;;;;;;1095.75;133.85;;;;;;;;;;3246967;44;20551;-69
2021/01/09 06:19:32;;;;;;;1099.10;135.77;;;;;;;;;;3247205;44;20095;-69
2021/01/09 06:21:58;;;;;;;1096.20;132.52;;;;;;;;;;3238444;44;20148;-70
2021/01/09 06:24:24;;;;;;;1097.68;132.60;;;;;;;;;;3245408;44;20115;-69
2021/01/09 06:26:49;;;;;;;1097.15;133.07;;;;;;;;;;3245731;44;20099;-69
2021/01/09 06:29:22;;;;;;;1099.13;133.10;;;;;;;;;;3246640;44;20437;-69
2021/01/09 06:31:54;;;;;;;1111.72;137.68;;;;;;;;;;3246387;44;20095;-69
2021/01/09 06:34:22;;;;;;;1110.90;132.82;;;;;;;;;;3246442;44;20145;-69
2021/01/09 06:36:50;;;;;;;1105.75;131.80;;;;;;;;;;3246238;44;20091;-70
2021/01/09 06:39:16;;;;;;;1105.55;132.85;;;;;;;;;;3246254;44;20188;-69
2021/01/09 06:41:42;;;;;;;1104.88;132.25;;;;;;;;;;3245922;44;20092;-69
2021/01/09 06:44:08;;;;;;;1112.28;133.12;;;;;;;;;;3246421;44;20105;-69
2021/01/09 06:46:34;;;;;;;1109.43;131.90;;;;;;;;;;3246222;44;20125;-69
2021/01/09 06:49:00;;;;;;;1110.82;133.37;;;;;;;;;;3246544;44;20102;-69
2021/01/09 06:51:34;;;;;;;1109.30;133.45;;;;;;;;;;3245641;44;20177;-69
2021/01/09 06:54:15;;;;;;;1110.72;132.85;;;;;;;;;;3245250;44;20264;-69
2021/01/09 06:56:42;;;;;;;1116.80;133.60;;;;;;;;;;3245836;44;20122;-69
2021/01/09 06:59:08;;;;;;;1117.20;133.40;;;;;;;;;;3245488;44;20568;-68
2021/01/09 07:01:36;;;;;;;1119.03;133.80;;;;;;;;;;3245546;44;20126;-69
2021/01/09 07:04:03;;;;;;;1120.07;132.35;;;;;;;;;;3246282;44;20556;-69
2021/01/09 07:06:47;;;;;;;1118.88;131.50;;;;;;;;;;3237879;44;20107;-69
2021/01/09 07:09:13;;;;;;;1127.50;133.65;;;;;;;;;;3245831;44;20111;-69
2021/01/09 07:11:41;;;;;;;1121.65;133.12;;;;;;;;;;3245496;44;20123;-69
2021/01/09 07:14:13;;;;;;;1115.00;130.87;;;;;;;;;;3245362;44;20508;-69
2021/01/09 07:16:39;;;;;;;1124.57;131.63;;;;;;;;;;3245550;44;20094;-69
2021/01/09 07:19:05;;;;;;;1125.55;132.52;;;;;;;;;;3245637;44;20192;-68
2021/01/09 07:21:35;;;;;;;1129.25;136.48;;;;;;;;;;3245528;44;20134;-68
2021/01/09 07:24:04;;;;;;;1123.35;133.98;;;;;;;;;;3245503;44;20125;-69
2021/01/09 07:26:30;;;;;;;1123.20;133.37;;;;;;;;;;3245580;44;20099;-69
2021/01/09 07:28:56;;;;;;;1125.95;133.48;;;;;;;;;;3245604;44;20105;-69
2021/01/09 07:31:24;;;;;;;1131.40;137.25;;;;;;;;;;3245440;44;20179;-69
2021/01/09 07:33:55;;;;;;;1125.00;136.15;;;;;;;;;;3245177;44;20138;-69
2021/01/09 07:36:25;;;;;;;1121.55;136.12;;;;;;;;;;3244790;44;20222;-68
2021/01/09 07:38:50;;;;;;;1128.25;134.63;;;;;;;;;;3244833;44;20169;-68
2021/01/09 07:41:32;;;;;;;1121.93;135.35;;;;;;;;;;3236307;44;20095;-68
2021/01/09 07:44:14;;;;;;;1124.43;137.43;;;;;;;;;;3244739;44;20099;-68
2021/01/09 07:46:52;;;;;;;1123.43;137.55;;;;;;;;;;3244751;44;20533;-68
2021/01/09 07:49:44;;;;;;;1116.00;137.30;;;;;;;;;;3237197;44;20095;-68
2021/01/09 07:52:09;;;;;;;1116.07;139.95;;;;;;;;;;3242108;44;20094;-69
2021/01/09 07:54:37;;;;;;;1108.95;139.50;;;;;;;;;;3241798;44;20094;-69
2021/01/09 07:57:04;;;;;;;1107.97;136.23;;;;;;;;;;3244387;44;20099;-68
2021/01/09 07:59:30;;;;;;;1112.07;137.10;;;;;;;;;;3245316;44;20103;-69
2021/01/09 08:01:55;;;;;;;1109.45;134.82;;;;;;;;;;3244964;44;20091;-69
2021/01/09 08:04:21;;;;;;;1106.75;132.80;;;;;;;;;;3245261;44;20532;-69
2021/01/09 08:06:47;;;;;;;1113.63;132.98;;;;;;;;;;3244338;44;20179;-68
2021/01/09 08:09:12;;;;;;;1120.45;132.07;;;;;;;;;;3244244;44;20607;-69
2021/01/09 08:11:45;;;;;;;1125.93;134.12;;;;;;;;;;3244228;44;20087;-69
2021/01/09 08:14:13;;;;;;;1124.10;134.37;;;;;;;;;;3253112;44;20138;-71
2021/01/09 08:16:39;;;;;;;1127.60;133.37;;;;;;;;;;3244549;44;20423;-76
2021/01/09 08:19:05;;;;;;;1120.90;132.07;;;;;;;;;;3290259;27;20195;31
2021/01/09 08:24:00;;;;;;;1124.13;131.20;;;;;;;;;;928161;26;20383;-72
2021/01/09 08:26:31;;;;;;;1122.22;131.27;;;;;;;;;;3279075;26;21267;-73
2021/01/09 08:31:37;;;;;;;1125.32;131.93;;;;;;;;;;3340447;26;20928;-75
2021/01/09 08:36:31;;;;;;;1116.85;132.18;;;;;;;;;;3397245;26;20137;-74
2021/01/09 08:39:02;;;;;;;1117.82;132.37;;;;;;;;;;3341106;26;20579;-72
2021/01/09 08:41:28;;;;;;;;;;;;;;;;;;3408887;26;20192;-72
2021/01/09 08:59:47;;;;;;;1095.18;132.68;;;;;;;;;;3279513;26;20114;31
2021/01/09 09:02:16;;;;;;;1099.70;132.48;;;;;;;;;;3244919;37;20116;-70
2021/01/09 09:04:49;;;;;;;1099.97;131.95;;;;;;;;;;3394344;26;20176;-75
2021/01/09 09:07:21;;;;;;;1099.03;133.15;;;;;;;;;;3396399;26;20980;-72
2021/01/09 09:12:24;;;;;;;1090.13;132.12;;;;;;;;;;3289791;26;20074;-77
2021/01/09 09:30:46;;;;;;;1089.85;134.63;;;;;;;;;;864726;26;21984;-75
2021/01/09 09:35:45;;;;;;;1099.25;133.30;;;;;;;;;;930401;26;21583;-73
2021/01/09 09:40:45;;;;;;;1102.60;132.40;;;;;;;;;;800555;26;21721;-75
2021/01/09 09:43:17;;;;;;;1096.68;132.85;;;;;;;;;;3370574;26;22056;-74
2021/01/09 09:59:02;;;;;;;1115.00;132.25;;;;;;;;;;3279065;27;20121;-75
2021/01/09 10:01:34;;;;;;;1114.65;131.77;;;;;;;;;;3310866;26;20141;-73
2021/01/09 10:06:40;;;;;;;1120.57;130.87;;;;;;;;;;3343771;26;20021;-75
2021/01/09 10:09:10;;;;;;;1118.95;131.70;;;;;;;;;;3253285;36;20123;-74
2021/01/09 10:11:44;;;;;;;1120.93;132.27;;;;;;;;;;3344099;26;20078;-73
2021/01/09 10:14:16;;;;;;;1126.28;132.50;;;;;;;;;;3283471;27;20133;-73
2021/01/09 10:16:43;;;;;;;1131.82;134.05;;;;;;;;;;3313956;26;20145;-74
2021/01/09 10:19:16;;;;;;;1131.78;134.73;;;;;;;;;;834305;26;20451;-75
2021/01/09 10:21:49;;;;;;;1127.85;134.12;;;;;;;;;;3353300;27;20201;-73
2021/01/09 10:24:22;;;;;;;1124.18;133.95;;;;;;;;;;3337862;26;20943;-73
2021/01/09 10:26:54;;;;;;;1124.38;132.23;;;;;;;;;;3280729;26;20126;-73
2021/01/09 10:34:45;;;;;;;1113.43;132.73;;;;;;;;;;3274977;26;20664;-74
2021/01/09 10:37:17;;;;;;;1109.70;133.93;;;;;;;;;;3271170;26;20119;-73
2021/01/09 10:42:11;;;;;;;1112.70;132.60;;;;;;;;;;3300391;26;19994;-73
2021/01/09 10:44:44;;;;;;;1109.75;132.87;;;;;;;;;;3420997;26;21587;-75
2021/01/09 10:47:10;;;;;;;1110.10;133.75;;;;;;;;;;3368121;26;20216;-75
2021/01/09 10:49:39;;;;;;;1109.32;132.45;;;;;;;;;;3315358;26;20113;-74
2021/01/09 10:52:05;;;;;;;1109.03;132.52;;;;;;;;;;3260876;37;20847;-73
2021/01/09 10:54:31;;;;;;;1110.22;134.80;;;;;;;;;;3262670;44;20288;-72
2021/01/09 10:56:56;;;;;;;1119.88;140.35;;;;;;;;;;3262694;44;20476;-71
2021/01/09 10:59:22;;;;;;;1104.85;139.27;;;;;;;;;;3263643;44;20115;-72
2021/01/09 11:01:50;;;;;;;1092.22;135.93;;;;;;;;;;3263913;44;20109;-73
2021/01/09 11:04:22;;;;;;;1094.40;137.27;;;;;;;;;;3318924;26;20150;-74
2021/01/09 11:06:49;;;;;;;1092.57;135.37;;;;;;;;;;3318269;26;20235;31
2021/01/09 11:09:14;;;;;;;1087.82;135.05;;;;;;;;;;3249346;37;20022;-72
2021/01/09 11:11:46;;;;;;;1087.43;136.32;;;;;;;;;;3253781;44;20975;-73
2021/01/09 11:14:18;;;;;;;1086.43;137.18;;;;;;;;;;3255685;44;20121;-72
2021/01/09 11:16:43;;;;;;;;;;;;;;;;;;3254658;44;20160;-71
2021/01/09 11:19:12;;;;;;;1089.70;136.70;;;;;;;;;;3253069;44;20064;-73
2021/01/09 11:21:38;;;;;;;1090.90;136.23;;;;;;;;;;3254485;44;20138;-72
2021/01/09 11:24:04;;;;;;;1091.40;134.18;;;;;;;;;;3254152;44;20099;-72
2021/01/09 11:26:29;;;;;;;1092.22;134.02;;;;;;;;;;3252846;44;20134;-72
2021/01/09 11:28:55;;;;;;;1088.53;133.00;;;;;;;;;;3254572;44;20113;-71
2021/01/09 11:31:21;;;;;;;1090.78;132.80;;;;;;;;;;3254838;44;20119;-73
2021/01/09 11:33:47;;;;;;;1088.10;132.15;;;;;;;;;;3256585;44;20725;-73
2021/01/09 11:36:19;;;;;;;1089.63;130.98;;;;;;;;;;3283612;26;20168;-74
2021/01/09 11:38:45;;;;;;;1092.22;132.50;;;;;;;;;;3245672;37;20119;-72
2021/01/09 11:41:11;;;;;;;1093.45;132.93;;;;;;;;;;3246245;44;20107;-73
2021/01/09 11:43:39;;;;;;;1093.32;133.07;;;;;;;;;;3245918;44;20884;-72
2021/01/09 11:46:07;;;;;;;1096.65;137.93;;;;;;;;;;3246574;44;20103;-74
2021/01/09 11:48:32;;;;;;;1094.20;133.68;;;;;;;;;;3246939;44;20117;-72
2021/01/09 11:50:58;;;;;;;1093.88;131.73;;;;;;;;;;3246839;44;20835;-72
2021/01/09 11:53:23;;;;;;;1096.68;133.20;;;;;;;;;;3246186;44;20118;-72
2021/01/09 11:55:49;;;;;;;1103.72;133.40;;;;;;;;;;3244904;44;20130;-71
2021/01/09 11:58:17;;;;;;;1104.13;133.35;;;;;;;;;;3244293;44;20209;-73
2021/01/09 12:00:43;;;;;;;1101.82;133.95;;;;;;;;;;3242908;44;20277;-71
2021/01/09 12:03:14;;;;;;;1101.32;136.20;;;;;;;;;;3244801;44;20158;-73
2021/01/09 12:05:40;;;;;;;1097.95;136.07;;;;;;;;;;3243357;44;20658;-70
2021/01/09 12:08:06;;;;;;;1093.35;132.50;;;;;;;;;;3243347;44;20111;-72
2021/01/09 12:10:32;;;;;;;1089.00;130.93;;;;;;;;;;3244089;44;20103;-71
2021/01/09 12:13:02;;;;;;;1088.60;130.05;;;;;;;;;;3246480;44;20090;-72
2021/01/09 12:15:32;;;;;;;1085.40;130.50;;;;;;;;;;3249164;44;20129;-72
2021/01/09 12:17:58;;;;;;;1089.90;131.00;;;;;;;;;;3252210;44;20138;-72
2021/01/09 12:20:23;;;;;;;1090.07;131.37;;;;;;;;;;3254434;44;20980;-70
2021/01/09 12:25:16;;;;;;;1095.63;133.05;;;;;;;;;;3249552;37;20098;-72
2021/01/09 12:27:43;;;;;;;1103.40;133.87;;;;;;;;;;3256732;44;20146;-72
2021/01/09 12:30:15;;;;;;;1103.80;132.75;;;;;;;;;;3316074;26;20650;-73
2021/01/09 12:32:44;;;;;;;1097.30;132.40;;;;;;;;;;3310992;27;21146;-73
2021/01/09 12:35:16;;;;;;;1103.03;134.23;;;;;;;;;;3410200;26;20122;-74
2021/01/09 12:37:42;;;;;;;1105.10;134.73;;;;;;;;;;3311222;26;20603;-72
2021/01/09 12:45:45;;;;;;;1098.18;133.27;;;;;;;;;;3757933;26;21146;-80
2021/01/09 12:48:11;;;;;;;1102.38;132.60;;;;;;;;;;1199390;26;22465;-76
2021/01/09 12:50:43;;;;;;;1102.60;131.77;;;;;;;;;;800871;26;21728;-75
2021/01/09 12:53:11;;;;;;;1100.65;131.90;;;;;;;;;;815149;26;20446;31
2021/01/09 12:55:37;;;;;;;1101.80;134.73;;;;;;;;;;3234513;37;20126;-72
2021/01/09 12:58:06;;;;;;;1095.22;134.60;;;;;;;;;;3326165;26;20130;-74
2021/01/09 13:00:38;;;;;;;1093.82;134.40;;;;;;;;;;3343657;26;20682;-73
2021/01/09 13:03:14;;;;;;;1091.20;133.60;;;;;;;;;;3286433;26;20149;-72
2021/01/09 13:05:46;;;;;;;1091.03;136.55;;;;;;;;;;3287029;26;20675;-74
2021/01/09 13:08:18;;;;;;;1085.40;135.18;;;;;;;;;;864939;26;21357;-73
2021/01/09 13:10:44;;;;;;;1088.78;136.95;;;;;;;;;;3246431;37;20118;-72
2021/01/09 13:13:16;;;;;;;1091.22;133.77;;;;;;;;;;3317251;26;20122;-74
2021/01/09 13:15:41;;;;;;;1097.97;134.80;;;;;;;;;;3257561;37;20150;-74
2021/01/09 13:20:36;;;;;;;1102.03;135.10;;;;;;;;;;3262999;37;20592;-72
2021/01/09 13:23:09;;;;;;;1103.47;135.90;;;;;;;;;;3291084;26;20118;-74
2021/01/09 13:25:35;;;;;;;1106.55;134.87;;;;;;;;;;3261072;37;20134;-73
2021/01/09 13:30:49;;;;;;;1097.85;133.60;;;;;;;;;;3308061;26;20180;-74
2021/01/09 13:35:48;;;;;;;1093.80;132.77;;;;;;;;;;3279995;27;20103;-74
2021/01/09 13:51:19;;;;;;;1102.55;131.27;;;;;;;;;;3275895;26;20119;-73
2021/01/09 13:53:55;;;;;;;1109.97;133.63;;;;;;;;;;3284881;27;20334;-73
2021/01/09 13:56:34;;;;;;;1118.10;131.17;;;;;;;;;;3308784;26;20626;-72
2021/01/09 13:59:06;;;;;;;1130.20;131.40;;;;;;;;;;3310682;27;20217;-74
2021/01/09 14:01:38;;;;;;;1140.38;133.43;;;;;;;;;;862001;26;20426;-74
2021/01/09 14:04:11;;;;;;;1143.80;135.05;;;;;;;;;;3345204;26;20109;-72
2021/01/09 14:06:37;;;;;;;1144.30;134.07;;;;;;;;;;3412091;26;21594;31
2021/01/09 14:09:09;;;;;;;1139.97;131.85;;;;;;;;;;3382273;27;20926;-73
2021/01/09 14:14:19;;;;;;;1148.10;138.20;;;;;;;;;;3366474;26;20158;-73
2021/01/09 14:16:46;;;;;;;1155.35;142.98;;;;;;;;;;3376145;26;20152;31
2021/01/09 14:19:18;;;;;;;1150.68;136.77;;;;;;;;;;900031;26;21512;-73
2021/01/09 14:24:22;;;;;;;1166.25;140.50;;;;;;;;;;3422075;26;20005;-74
2021/01/09 14:29:27;;;;;;;1175.60;139.77;;;;;;;;;;3307412;26;20212;-68
2021/01/09 14:31:56;;;;;;;1171.93;140.77;;;;;;;;;;3249504;44;20169;-68
2021/01/09 14:34:22;;;;;;;1184.90;146.52;;;;;;;;;;3251347;44;20215;-68
2021/01/09 14:36:50;;;;;;;1173.53;141.73;;;;;;;;;;3256485;44;20287;-70
2021/01/09 14:39:16;;;;;;;1179.05;144.98;;;;;;;;;;3254532;44;20145;-70
2021/01/09 14:41:44;;;;;;;1173.32;141.52;;;;;;;;;;3252295;44;20109;-70
2021/01/09 14:44:10;;;;;;;1188.75;154.52;;;;;;;;;;3252584;44;20122;-69
2021/01/09 14:46:36;;;;;;;1169.47;142.52;;;;;;;;;;3250220;44;20130;-68
2021/01/09 14:49:01;;;;;;;1165.70;145.43;;;;;;;;;;3250887;44;20525;-69
2021/01/09 14:51:27;;;;;;;1162.07;144.07;;;;;;;;;;3252573;44;20485;-69
2021/01/09 14:53:52;;;;;;;1154.15;137.18;;;;;;;;;;3251495;44;20127;-70
2021/01/09 14:56:21;;;;;;;1163.68;138.43;;;;;;;;;;3251101;44;20538;-68
2021/01/09 14:58:47;;;;;;;1163.57;134.80;;;;;;;;;;3249940;44;20169;-68
2021/01/09 15:01:13;;;;;;;1162.43;134.60;;;;;;;;;;3248860;44;20140;-68
2021/01/09 15:03:39;;;;;;;1165.32;138.25;;;;;;;;;;3248677;44;20200;-67
2021/01/09 15:06:05;;;;;;;1162.25;138.00;;;;;;;;;;3248041;44;20185;-68
2021/01/09 15:08:31;;;;;;;1166.47;137.20;;;;;;;;;;3248686;44;20164;-67
2021/01/09 15:10:57;;;;;;;1163.18;137.35;;;;;;;;;;3248124;44;20682;-68
2021/01/09 15:13:22;;;;;;;1167.43;137.82;;;;;;;;;;3248648;44;20204;-68
2021/01/09 15:15:48;;;;;;;1165.72;134.00;;;;;;;;;;3248757;44;20149;-68
2021/01/09 15:18:34;;;;;;;1177.38;135.57;;;;;;;;;;3248277;44;20137;-68
2021/01/09 15:20:59;;;;;;;1187.50;141.65;;;;;;;;;;3248402;44;20149;-69
2021/01/09 15:23:25;;;;;;;1179.18;137.40;;;;;;;;;;3249075;44;20114;-68
2021/01/09 15:25:50;;;;;;;1170.40;136.70;;;;;;;;;;3248636;44;20206;-68
2021/01/09 15:28:16;;;;;;;1182.28;136.75;;;;;;;;;;3242515;44;20142;-67
2021/01/09 15:30:41;;;;;;;1193.85;136.27;;;;;;;;;;3240358;44;20153;-70